Time;durP1;ratioP1;P1;durP2;ratioP2;P2;SDS_P1;SDS_P2;PMS_P1;PMS_P2;Temp;Humidity;BMP_temperature;BMP_pressure;BME280_temperature;BME280_humidity;BME280_pressure;Samples;Min_cycle;Max_cycle;Signal;HPM_P1;HPM_P2
2023/12/28 00:02:18;;;;;;;3.78;1.77;;;;;;;0.36;71.42;98522.75;5071722;28;20186;-67
2023/12/28 00:04:43;;;;;;;2.05;1.17;;;;;;;0.44;71.63;98559.28;5071730;28;20520;-65
2023/12/28 00:07:09;;;;;;;4.57;1.90;;;;;;;0.37;71.83;98566.16;5053585;28;20131;-64
2023/12/28 00:09:35;;;;;;;4.65;1.80;;;;;;;0.42;72.16;98555.88;5072291;28;20076;-64
2023/12/28 00:12:01;;;;;;;3.58;1.42;;;;;;;0.56;72.10;98566.81;5072137;28;20109;-64
2023/12/28 00:14:27;;;;;;;4.05;1.70;;;;;;;0.63;71.54;98572.69;5071177;28;20047;-66
2023/12/28 00:16:53;;;;;;;2.88;1.33;;;;;;;0.48;71.92;98563.47;5085455;28;20068;-65
2023/12/28 00:19:20;;;;;;;5.55;1.60;;;;;;;0.40;71.90;98568.69;5091743;28;20040;-65
2023/12/28 00:21:46;;;;;;;3.42;1.30;;;;;;;0.42;72.40;98571.22;5091682;28;20120;-65
2023/12/28 00:24:12;;;;;;;4.18;1.63;;;;;;;0.20;72.55;98534.00;5091592;28;20063;-64
2023/12/28 00:26:38;;;;;;;3.58;1.90;;;;;;;0.51;72.08;98567.72;5078365;28;20036;-64
2023/12/28 00:29:05;;;;;;;3.78;1.77;;;;;;;0.50;72.23;98576.25;5072056;28;20522;-64
2023/12/28 00:31:31;;;;;;;2.47;1.88;;;;;;;0.57;72.64;98577.88;5072974;28;20126;-64
2023/12/28 00:33:56;;;;;;;4.43;1.73;;;;;;;0.64;72.27;98567.53;5079771;28;20044;-64
2023/12/28 00:36:23;;;;;;;4.38;1.55;;;;;;;0.66;71.76;98573.50;5053299;28;20072;-64
2023/12/28 00:38:49;;;;;;;2.03;1.30;;;;;;;0.68;71.55;98578.59;5053080;28;20036;-64
2023/12/28 00:41:15;;;;;;;3.05;1.75;;;;;;;0.74;71.97;98578.50;5069768;28;20036;-64
2023/12/28 00:43:42;;;;;;;3.40;1.60;;;;;;;0.73;71.46;98587.06;5070038;28;20048;-64
2023/12/28 00:46:08;;;;;;;6.70;1.45;;;;;;;0.62;71.53;98583.78;5069680;28;20032;-64
2023/12/28 00:48:34;;;;;;;3.78;1.38;;;;;;;0.29;71.78;98564.56;5052861;28;20043;-64
2023/12/28 00:51:00;;;;;;;4.68;2.00;;;;;;;0.40;72.16;98586.59;5084988;28;20047;-64
2023/12/28 00:53:27;;;;;;;1.98;1.08;;;;;;;0.43;72.36;98595.91;5087672;28;20046;-64
2023/12/28 00:55:53;;;;;;;3.38;1.60;;;;;;;0.38;72.30;98595.13;5088833;28;20078;-63
2023/12/28 00:58:19;;;;;;;3.85;1.67;;;;;;;0.45;72.36;98594.19;5090129;28;20501;-64
2023/12/28 01:00:45;;;;;;;4.05;1.35;;;;;;;0.19;72.44;98558.72;5072905;28;20048;-63
2023/12/28 01:03:10;;;;;;;3.70;1.73;;;;;;;0.29;72.52;98559.44;5089852;28;20427;-64
2023/12/28 01:05:36;;;;;;;2.95;1.50;;;;;;;0.50;72.85;98595.00;5057676;28;20427;-64
2023/12/28 01:08:04;;;;;;;3.45;1.60;;;;;;;0.48;72.36;98589.03;5069752;28;20474;-63
2023/12/28 01:10:30;;;;;;;2.83;1.60;;;;;;;0.53;72.61;98588.97;5070248;28;20043;-64
2023/12/28 01:12:56;;;;;;;3.75;1.50;;;;;;;0.56;72.18;98601.75;5070702;28;20048;-64
2023/12/28 01:15:22;;;;;;;2.03;1.30;;;;;;;0.47;72.81;98607.81;5070533;28;20037;-63
2023/12/28 01:17:48;;;;;;;2.92;1.40;;;;;;;0.47;72.37;98612.09;5073751;28;20041;-65
2023/12/28 01:20:14;;;;;;;2.40;1.40;;;;;;;0.40;72.78;98617.25;5072743;28;20093;-63
2023/12/28 01:22:40;;;;;;;1.88;1.00;;;;;;;0.35;72.43;98626.69;5070224;28;20041;-64
2023/12/28 01:25:06;;;;;;;3.60;1.27;;;;;;;0.04;73.01;98581.88;5050792;28;20048;-64
2023/12/28 01:27:33;;;;;;;1.42;0.75;;;;;;;0.38;72.87;98625.81;5071210;28;20049;-64
2023/12/28 01:29:59;;;;;;;3.10;1.38;;;;;;;0.37;73.36;98621.53;5052328;28;20052;-63
2023/12/28 01:32:25;;;;;;;2.03;1.17;;;;;;;0.43;73.28;98624.03;5068844;28;20520;-63
2023/12/28 01:34:52;;;;;;;2.03;1.40;;;;;;;0.62;73.19;98628.09;5069073;28;20044;-63
2023/12/28 01:37:18;;;;;;;2.28;1.40;;;;;;;0.65;72.67;98624.66;5068935;28;20542;-63
2023/12/28 01:39:44;;;;;;;1.83;1.23;;;;;;;0.64;72.98;98616.13;5068797;28;20072;-65
2023/12/28 01:42:10;;;;;;;3.53;1.50;;;;;;;0.50;72.77;98623.13;5035504;28;20040;-63
2023/12/28 01:44:36;;;;;;;2.40;1.27;;;;;;;0.48;73.32;98627.38;5069622;28;20037;-64
2023/12/28 01:47:02;;;;;;;3.97;1.20;;;;;;;0.58;73.30;98628.97;5069760;28;20047;-62
2023/12/28 01:49:28;;;;;;;3.30;1.30;;;;;;;0.60;73.14;98634.09;5089542;28;20043;-63
2023/12/28 01:51:53;;;;;;;3.28;1.23;;;;;;;0.48;72.92;98601.81;5054920;28;20055;-62
2023/12/28 01:54:19;;;;;;;2.35;1.00;;;;;;;0.73;73.02;98630.53;5088635;28;20040;-64
2023/12/28 01:56:47;;;;;;;2.45;1.33;;;;;;;0.61;73.01;98630.66;5068248;28;20039;-64
2023/12/28 01:59:13;;;;;;;1.63;1.10;;;;;;;0.55;73.60;98620.50;5085282;28;20036;-63
2023/12/28 02:01:39;;;;;;;1.95;1.02;;;;;;;0.64;73.46;98639.16;5051601;28;20063;-63
2023/12/28 02:04:06;;;;;;;2.60;1.50;;;;;;;0.69;73.27;98637.38;5068321;28;20036;-63
2023/12/28 02:06:32;;;;;;;2.13;1.17;;;;;;;0.81;73.36;98644.06;5068257;28;20530;-63
2023/12/28 02:08:58;;;;;;;3.10;1.55;;;;;;;0.43;72.67;98598.47;5069386;28;20131;-63
2023/12/28 02:11:24;;;;;;;3.45;1.23;;;;;;;0.63;73.17;98651.97;5068195;28;20433;-62
2023/12/28 02:13:50;;;;;;;2.78;1.50;;;;;;;0.70;72.84;98646.75;5051628;28;20420;-63
2023/12/28 02:16:22;;;;;;;2.22;1.40;;;;;;;0.79;73.12;98656.00;5069737;28;20039;-63
2023/12/28 02:18:53;;;;;;;2.03;1.23;;;;;;;0.80;73.00;98655.16;5051726;28;20044;-63
2023/12/28 02:21:20;;;;;;;2.38;1.50;;;;;;;0.80;72.97;98662.81;5068157;28;20098;-62
2023/12/28 02:23:48;;;;;;;3.58;1.85;;;;;;;0.76;72.80;98653.50;5067893;28;20036;-62
2023/12/28 02:26:16;;;;;;;8.23;1.73;;;;;;;0.79;72.90;98654.31;5072172;28;20044;-63
2023/12/28 02:28:42;;;;;;;2.50;1.40;;;;;;;0.77;73.07;98662.88;5069014;28;20382;-64
2023/12/28 02:31:12;;;;;;;3.72;1.58;;;;;;;0.69;73.16;98662.94;5068720;28;20047;-63
2023/12/28 02:33:49;;;;;;;2.83;1.35;;;;;;;0.69;73.17;98669.78;5067643;28;20131;-63
2023/12/28 02:36:18;;;;;;;2.40;1.30;;;;;;;0.69;73.00;98654.44;5051082;28;20091;-64
2023/12/28 02:38:44;;;;;;;;;;;;;;;0.74;73.00;98668.00;5068137;28;20044;-64
2023/12/28 02:41:10;;;;;;;3.10;1.40;;;;;;;0.58;73.15;98664.78;5050786;28;19924;-64
2023/12/28 02:43:36;;;;;;;2.65;1.30;;;;;;;0.57;73.10;98664.81;5050865;28;20071;-64
2023/12/28 02:46:01;;;;;;;1.48;0.88;;;;;;;0.43;73.00;98636.81;5067745;28;20044;-64
2023/12/28 02:48:28;;;;;;;3.15;1.70;;;;;;;0.21;73.15;98632.81;5050811;28;20072;-63
2023/12/28 02:50:54;;;;;;;2.28;1.15;;;;;;;0.39;73.51;98674.38;5067301;28;20483;-62
2023/12/28 02:53:20;;;;;;;1.85;0.95;;;;;;;0.37;73.90;98670.13;5032594;28;20044;-62
2023/12/28 02:55:46;;;;;;;2.75;1.70;;;;;;;0.27;74.20;98673.63;5065913;28;20519;-63
2023/12/28 02:58:12;;;;;;;4.20;2.17;;;;;;;0.25;74.13;98668.56;5066247;28;20055;-64
2023/12/28 03:00:38;;;;;;;2.67;1.25;;;;;;;0.32;74.09;98670.16;5070751;28;20044;-64
2023/12/28 03:03:04;;;;;;;2.58;1.58;;;;;;;0.30;74.04;98638.69;5070695;28;20046;-64
2023/12/28 03:05:30;;;;;;;3.42;1.60;;;;;;;0.56;74.15;98665.69;5088574;28;20465;-66
2023/12/28 03:07:57;;;;;;;1.75;1.17;;;;;;;0.43;73.76;98653.00;5069489;28;20044;-63
2023/12/28 03:10:23;;;;;;;3.35;1.40;;;;;;;0.34;73.44;98627.56;5067346;28;20645;-64
2023/12/28 03:12:49;;;;;;;2.17;1.08;;;;;;;0.28;73.48;98631.88;5068617;28;20040;-64
2023/12/28 03:15:16;;;;;;;2.05;1.08;;;;;;;0.49;73.15;98671.72;5067401;28;20831;-63
2023/12/28 03:17:42;;;;;;;3.42;1.17;;;;;;;0.46;73.54;98680.28;5067140;28;20048;-62
2023/12/28 03:20:10;;;;;;;1.80;1.02;;;;;;;0.46;73.42;98681.97;5050503;28;20464;-62
2023/12/28 03:22:37;;;;;;;2.47;1.50;;;;;;;0.43;73.37;98698.19;5067246;28;20041;-63
2023/12/28 03:25:04;;;;;;;2.15;1.30;;;;;;;0.06;73.24;98632.94;5072134;28;20036;-63
2023/12/28 03:27:32;;;;;;;2.80;1.40;;;;;;;0.51;73.21;98693.84;5072538;28;20033;-63
2023/12/28 03:29:59;;;;;;;2.67;1.17;;;;;;;0.64;72.54;98690.28;5067290;28;20044;-64
2023/12/28 03:32:24;;;;;;;2.97;1.55;;;;;;;0.67;72.45;98699.66;5070018;28;20040;-62
2023/12/28 03:34:50;;;;;;;2.20;1.52;;;;;;;0.68;72.03;98699.63;5054214;28;20048;-63
2023/12/28 03:37:16;;;;;;;4.07;1.80;;;;;;;0.62;72.27;98697.16;5054364;28;20040;-63
2023/12/28 03:39:42;;;;;;;3.47;1.50;;;;;;;0.61;72.87;98692.88;5071009;28;20051;-63
2023/12/28 03:42:08;;;;;;;3.25;1.70;;;;;;;0.66;72.47;98706.47;5071996;28;20037;-61
2023/12/28 03:44:33;;;;;;;3.28;1.50;;;;;;;0.63;72.35;98698.81;5083840;28;20430;-63
2023/12/28 03:47:00;;;;;;;2.17;1.58;;;;;;;0.19;72.51;98625.16;5065462;28;20432;-62
2023/12/28 03:49:26;;;;;;;3.00;1.40;;;;;;;0.61;72.35;98698.00;5072149;28;20070;-63
2023/12/28 03:51:53;;;;;;;2.75;1.48;;;;;;;0.77;72.60;98703.81;5071267;28;20504;-62
2023/12/28 03:54:19;;;;;;;2.47;1.48;;;;;;;0.71;72.41;98703.88;5070627;28;20080;-63
2023/12/28 03:56:46;;;;;;;3.28;1.40;;;;;;;0.78;72.11;98710.63;5070651;28;20043;-63
2023/12/28 03:59:12;;;;;;;5.28;1.75;;;;;;;0.84;71.94;98705.41;5070454;28;20042;-64
2023/12/28 04:01:38;;;;;;;2.25;1.27;;;;;;;0.89;71.82;98711.31;5071626;28;20064;-63
2023/12/28 04:04:04;;;;;;;2.85;1.55;;;;;;;0.94;71.98;98708.75;5070755;28;20071;-64
2023/12/28 04:06:30;;;;;;;2.53;1.30;;;;;;;0.88;71.75;98694.31;5071875;28;20131;-62
2023/12/28 04:08:57;;;;;;;2.47;1.30;;;;;;;0.89;71.68;98713.88;5053677;28;20054;-65
2023/12/28 04:11:23;;;;;;;4.40;1.38;;;;;;;0.76;71.93;98720.88;5071719;28;20044;-64
2023/12/28 04:13:49;;;;;;;2.55;1.40;;;;;;;0.66;71.86;98726.94;5055642;28;20043;-65
2023/12/28 04:16:15;;;;;;;2.47;1.00;;;;;;;0.66;72.13;98711.59;5091349;28;20529;-65
2023/12/28 04:18:42;;;;;;;1.75;0.82;;;;;;;0.49;72.10;98723.69;5072420;28;20051;-63
2023/12/28 04:21:10;;;;;;;3.20;1.55;;;;;;;0.36;72.48;98724.69;5070325;28;20040;-65
2023/12/28 04:23:36;;;;;;;3.15;1.05;;;;;;;0.47;72.24;98743.34;5071477;28;20572;-63
2023/12/28 04:26:02;;;;;;;2.30;1.08;;;;;;;0.23;72.48;98705.19;5081456;28;20040;-64
2023/12/28 04:28:29;;;;;;;2.95;1.30;;;;;;;0.48;72.43;98744.16;5089393;28;20119;-65
2023/12/28 04:30:55;;;;;;;1.25;1.00;;;;;;;0.59;72.84;98747.47;5090275;28;20036;-65
2023/12/28 04:33:21;;;;;;;3.15;1.45;;;;;;;0.63;72.43;98739.75;5041766;28;20113;-63
2023/12/28 04:35:47;;;;;;;2.13;1.20;;;;;;;0.63;72.46;98726.94;5069912;28;20135;-62
2023/12/28 04:38:13;;;;;;;2.15;1.40;;;;;;;0.45;71.87;98687.94;5068726;28;20139;-63
2023/12/28 04:40:39;;;;;;;3.00;1.33;;;;;;;0.74;71.76;98748.16;5068786;28;20048;-64
2023/12/28 04:43:05;;;;;;;1.75;1.13;;;;;;;0.74;71.75;98753.28;5076716;28;20044;-64
2023/12/28 04:45:31;;;;;;;0.50;0.40;;;;;;;0.71;71.94;98749.91;5092082;28;20046;-64
2023/12/28 04:47:57;;;;;;;2.50;1.20;;;;;;;0.45;71.94;98724.59;5083157;28;20068;-65
2023/12/28 04:50:23;;;;;;;4.40;1.40;;;;;;;0.60;71.81;98757.69;5055963;28;20495;-63
2023/12/28 04:52:49;;;;;;;2.33;1.10;;;;;;;0.54;71.88;98754.31;5069495;28;20040;-63
2023/12/28 04:55:16;;;;;;;2.15;1.23;;;;;;;0.39;71.92;98770.66;5075748;28;20564;-61
2023/12/28 04:57:42;;;;;;;2.03;1.40;;;;;;;0.33;72.35;98760.47;5087373;28;20044;-64
2023/12/28 05:00:08;;;;;;;4.40;1.27;;;;;;;0.38;72.24;98756.16;5085456;28;20090;-65
2023/12/28 05:02:34;;;;;;;1.95;1.05;;;;;;;0.47;72.36;98763.78;5068305;28;20140;-68
2023/12/28 05:05:01;;;;;;;2.40;1.40;;;;;;;0.38;72.13;98717.81;5069908;28;20041;-64
2023/12/28 05:07:29;;;;;;;1.42;1.08;;;;;;;0.49;71.73;98748.41;5055644;28;20047;-68
2023/12/28 05:09:55;;;;;;;2.50;1.15;;;;;;;0.46;71.71;98767.19;5089327;28;20051;-66
2023/12/28 05:12:21;;;;;;;7.93;1.20;;;;;;;0.43;71.87;98765.50;5087940;28;20814;-69
2023/12/28 05:14:47;;;;;;;4.05;1.60;;;;;;;0.46;72.29;98766.34;5084819;28;20052;-66
2023/12/28 05:17:13;;;;;;;1.92;1.20;;;;;;;0.61;72.10;98779.00;5089242;28;20472;-65
2023/12/28 05:19:39;;;;;;;3.08;1.30;;;;;;;0.48;72.06;98774.84;5085987;28;20050;-68
2023/12/28 05:22:06;;;;;;;5.07;1.75;;;;;;;0.25;71.75;98757.16;5089186;28;20377;-67
2023/12/28 05:24:32;;;;;;;1.50;0.82;;;;;;;0.37;72.46;98760.44;5083403;28;20078;-65
2023/12/28 05:26:59;;;;;;;2.45;1.50;;;;;;;0.24;72.04;98738.41;5004318;28;1373335;-65
2023/12/28 05:29:25;;;;;;;1.63;1.08;;;;;;;0.22;71.44;98740.13;5090862;28;20110;-66
2023/12/28 05:31:50;;;;;;;2.05;1.38;;;;;;;0.26;72.23;98746.06;5088093;28;20043;-66
2023/12/28 05:34:16;;;;;;;2.78;1.50;;;;;;;0.60;72.07;98785.81;5077736;28;20032;-66
2023/12/28 05:36:45;;;;;;;6.90;1.83;;;;;;;0.63;71.71;98782.41;5052689;28;20048;-65
2023/12/28 05:39:13;;;;;;;3.65;1.88;;;;;;;0.62;71.63;98790.91;5070248;28;20036;-66
2023/12/28 05:41:40;;;;;;;4.57;1.70;;;;;;;0.51;71.89;98768.00;5071878;28;20135;-66
2023/12/28 05:44:06;;;;;;;2.58;1.52;;;;;;;0.78;71.24;98798.44;5086649;28;20447;-67
2023/12/28 05:46:32;;;;;;;3.50;1.38;;;;;;;0.83;71.55;98793.28;5090110;28;20816;-64
2023/12/28 05:48:58;;;;;;;4.85;1.50;;;;;;;0.88;71.34;98796.66;5086878;28;20047;-63
2023/12/28 05:51:24;;;;;;;2.55;1.33;;;;;;;0.96;71.03;98807.63;5088713;28;20040;-67
2023/12/28 05:53:51;;;;;;;3.50;1.50;;;;;;;0.97;70.62;98811.91;5087304;28;20123;-64
2023/12/28 05:56:17;;;;;;;4.20;1.30;;;;;;;0.91;70.84;98814.50;5086713;28;20079;-65
2023/12/28 05:58:43;;;;;;;3.42;1.67;;;;;;;0.84;70.74;98815.41;5088224;28;20490;-65
2023/12/28 06:01:08;;;;;;;2.58;1.52;;;;;;;0.96;70.67;98824.69;5088567;28;20502;-67
2023/12/28 06:03:34;;;;;;;2.80;1.10;;;;;;;0.70;70.47;98792.53;5088229;28;20088;-65
2023/12/28 06:06:00;;;;;;;2.13;1.30;;;;;;;0.65;70.52;98794.28;5071375;28;20040;-65
2023/12/28 06:08:26;;;;;;;2.80;1.33;;;;;;;0.65;70.61;98796.00;5089871;28;20036;-72
2023/12/28 06:10:53;;;;;;;2.45;1.38;;;;;;;0.90;70.19;98843.50;5088222;28;20873;-69
2023/12/28 06:13:19;;;;;;;2.60;1.50;;;;;;;0.95;70.17;98836.63;5089699;28;20059;-66
2023/12/28 06:15:44;;;;;;;2.78;1.38;;;;;;;0.91;70.31;98840.09;5086238;28;20112;-71
2023/12/28 06:18:10;;;;;;;3.17;1.70;;;;;;;0.97;70.40;98850.28;5067771;28;20404;-68
2023/12/28 06:20:36;;;;;;;2.55;1.67;;;;;;;1.07;70.04;98853.59;5088009;28;20047;-68
2023/12/28 06:23:02;;;;;;;2.63;1.27;;;;;;;1.14;70.26;98860.34;5088633;28;20056;-66
2023/12/28 06:25:28;;;;;;;3.47;1.38;;;;;;;1.14;69.90;98856.09;5085699;28;20415;-66
2023/12/28 06:27:54;;;;;;;3.13;1.15;;;;;;;1.05;70.21;98845.06;5069828;28;20036;-66
2023/12/28 06:30:20;;;;;;;2.60;1.38;;;;;;;1.22;70.01;98871.34;5083637;28;20515;-65
2023/12/28 06:32:46;;;;;;;3.15;1.55;;;;;;;1.06;69.29;98841.66;5071044;28;20032;-68
2023/12/28 06:35:12;;;;;;;1.98;1.30;;;;;;;1.20;69.60;98880.78;5078664;28;20435;-68
2023/12/28 06:37:38;;;;;;;3.97;1.58;;;;;;;1.20;69.15;98880.78;5076308;28;20090;-67
2023/12/28 06:40:04;;;;;;;1.70;0.90;;;;;;;1.24;69.42;98888.41;5087303;28;20040;-68
2023/12/28 06:42:30;;;;;;;2.53;1.52;;;;;;;1.17;68.78;98897.00;5083565;28;20101;-66
2023/12/28 06:44:56;;;;;;;2.78;1.40;;;;;;;1.20;68.86;98894.41;5079189;28;20454;-68
2023/12/28 06:47:22;;;;;;;2.95;1.40;;;;;;;1.23;69.12;98899.50;5084443;28;20036;-67
2023/12/28 06:49:48;;;;;;;3.03;1.20;;;;;;;1.26;68.31;98893.50;5083541;28;20101;-68
2023/12/28 06:52:14;;;;;;;2.22;1.20;;;;;;;1.15;68.62;98903.03;5082147;28;20039;-68
2023/12/28 06:54:40;;;;;;;3.83;1.52;;;;;;;1.21;68.29;98890.97;5084921;28;20109;-69
2023/12/28 06:57:06;;;;;;;2.92;1.40;;;;;;;1.35;68.23;98900.25;5085633;28;20515;-69
2023/12/28 06:59:31;;;;;;;1.95;1.20;;;;;;;1.38;68.22;98910.47;5081911;28;20071;-68
2023/12/28 07:01:58;;;;;;;3.67;1.40;;;;;;;1.41;68.02;98906.16;5081699;28;20051;-69
2023/12/28 07:04:25;;;;;;;3.72;1.90;;;;;;;1.32;67.90;98880.63;5085885;28;20086;-70
2023/12/28 07:06:51;;;;;;;5.15;1.27;;;;;;;1.46;67.67;98914.66;5083606;28;20063;-67
2023/12/28 07:09:17;;;;;;;2.33;1.20;;;;;;;1.44;68.11;98913.81;5066517;28;20074;-68
2023/12/28 07:11:43;;;;;;;3.40;1.70;;;;;;;1.50;68.03;98925.72;5055817;28;20037;-68
2023/12/28 07:14:09;;;;;;;3.08;1.40;;;;;;;1.55;68.04;98919.66;5079440;28;20052;-69
2023/12/28 07:16:35;;;;;;;2.13;1.17;;;;;;;1.41;68.13;98918.97;5053638;28;20047;-69
2023/12/28 07:19:01;;;;;;;2.35;1.50;;;;;;;1.30;68.29;98914.81;5083170;28;20376;-65
2023/12/28 07:21:27;;;;;;;5.32;1.95;;;;;;;1.21;68.34;98924.25;5077442;28;20040;-67
2023/12/28 07:23:53;;;;;;;2.58;1.40;;;;;;;0.78;68.87;98854.72;5085473;28;20042;-66
2023/12/28 07:26:18;;;;;;;3.00;1.40;;;;;;;1.33;68.78;98936.09;5074944;28;20044;-71
2023/12/28 07:28:47;;;;;;;2.40;1.42;;;;;;;1.26;68.93;98940.44;5081283;28;20090;-66
2023/12/28 07:31:24;;;;;;;4.65;1.73;;;;;;;1.36;68.74;98953.16;5074934;28;20431;-67
2023/12/28 07:33:50;;;;;;;2.70;1.58;;;;;;;1.39;68.94;98937.75;5075284;28;20040;-67
2023/12/28 07:36:16;;;;;;;3.40;1.63;;;;;;;1.48;68.51;98938.53;5071253;28;20037;-73
2023/12/28 07:38:41;;;;;;;3.83;1.52;;;;;;;1.53;68.86;98944.44;5077788;28;20040;-69
2023/12/28 07:41:08;;;;;;;6.95;2.05;;;;;;;1.62;68.44;98943.53;5078377;28;20047;-72
2023/12/28 07:43:34;;;;;;;2.67;1.60;;;;;;;1.78;67.96;98954.44;5076022;28;20044;-68
2023/12/28 07:45:59;;;;;;;1.80;1.20;;;;;;;1.78;67.50;98959.56;5067534;28;20516;-70
2023/12/28 07:48:25;;;;;;;2.20;1.17;;;;;;;1.58;67.15;98916.22;5051122;28;20052;-69
2023/12/28 07:50:51;;;;;;;1.35;1.00;;;;;;;1.66;66.45;98919.56;5074468;28;20079;-71
2023/12/28 07:53:17;;;;;;;3.35;1.73;;;;;;;1.96;66.19;98961.91;5076844;28;20048;-68
2023/12/28 07:55:43;;;;;;;1.77;1.15;;;;;;;2.05;65.87;98967.78;5080021;28;20044;-71
2023/12/28 07:58:09;;;;;;;3.13;1.77;;;;;;;2.10;65.75;98968.56;5078735;28;20036;-67
2023/12/28 08:00:36;;;;;;;1.75;1.17;;;;;;;2.08;65.00;98954.09;5077282;28;20097;-69
2023/12/28 08:03:01;;;;;;;2.00;1.33;;;;;;;2.23;64.86;98973.56;5059017;28;20048;-68
2023/12/28 08:05:27;;;;;;;3.53;1.42;;;;;;;2.25;64.35;98974.41;5070443;28;20054;-69
2023/12/28 08:07:53;;;;;;;3.15;1.30;;;;;;;2.31;64.24;98967.47;5070531;28;20037;-66
2023/12/28 08:10:19;;;;;;;5.63;1.60;;;;;;;2.36;63.65;98977.66;5069107;28;20032;-68
2023/12/28 08:12:44;;;;;;;3.38;1.50;;;;;;;1.95;63.57;98911.50;5067794;28;20051;-66
2023/12/28 08:15:10;;;;;;;2.13;1.35;;;;;;;2.37;63.23;98981.94;5077536;28;20040;-62
2023/12/28 08:17:36;;;;;;;1.90;1.20;;;;;;;2.27;62.80;98982.91;5075887;28;20093;-66
2023/12/28 08:20:02;;;;;;;2.22;1.20;;;;;;;2.30;63.08;98985.44;5073487;28;20059;-65
2023/12/28 08:22:31;;;;;;;2.33;1.50;;;;;;;2.05;62.50;98947.28;5074661;28;20037;-65
2023/12/28 08:24:57;;;;;;;2.58;1.40;;;;;;;2.30;62.54;98983.75;5075006;28;20109;-68
2023/12/28 08:27:23;;;;;;;2.00;1.10;;;;;;;2.30;62.57;98985.44;5077801;28;20189;-65
2023/12/28 08:29:49;;;;;;;2.67;1.33;;;;;;;2.33;62.65;98990.53;5073124;28;20051;-63
2023/12/28 08:32:17;;;;;;;1.90;1.10;;;;;;;2.04;62.36;98953.25;5082853;28;20415;-64
2023/12/28 08:34:43;;;;;;;2.92;1.10;;;;;;;2.17;62.14;98996.72;5069457;28;20051;-62
2023/12/28 08:37:09;;;;;;;2.35;1.23;;;;;;;1.82;62.50;98971.47;5076636;28;20089;-63
2023/12/28 08:39:35;;;;;;;3.15;1.70;;;;;;;2.01;62.84;99011.41;5075769;28;20067;-60
2023/12/28 08:42:01;;;;;;;2.85;1.50;;;;;;;1.79;62.76;98984.31;5073701;28;20404;-58
2023/12/28 08:44:27;;;;;;;3.20;1.30;;;;;;;1.59;62.69;98964.88;5077410;28;20032;-64
2023/12/28 08:46:53;;;;;;;1.88;1.02;;;;;;;1.91;63.05;99014.94;5080659;28;20041;-54
2023/12/28 08:49:19;;;;;;;2.50;1.20;;;;;;;1.99;63.16;99008.84;5075084;28;20037;-55
2023/12/28 08:51:44;;;;;;;2.22;1.30;;;;;;;2.01;63.14;99009.72;5071517;28;20051;-53
2023/12/28 08:54:10;;;;;;;2.45;1.33;;;;;;;2.01;63.29;99019.09;5065878;28;20063;-54
2023/12/28 08:56:36;;;;;;;2.35;1.45;;;;;;;1.63;63.96;99006.66;5067565;28;20048;-56
2023/12/28 08:59:03;;;;;;;3.38;1.63;;;;;;;1.54;64.68;98992.25;5075830;28;20041;-52
2023/12/28 09:01:29;;;;;;;3.95;1.50;;;;;;;1.82;64.95;99025.28;5079508;28;20123;-62
2023/12/28 09:03:55;;;;;;;2.92;1.65;;;;;;;1.85;65.37;99028.66;5077013;28;20075;-56
2023/12/28 09:06:21;;;;;;;3.78;1.70;;;;;;;1.62;65.89;99003.25;5073632;28;20075;-63
2023/12/28 09:08:50;;;;;;;3.00;1.77;;;;;;;1.48;66.95;98976.94;5074410;28;20051;-61
2023/12/28 09:11:17;;;;;;;3.47;1.80;;;;;;;1.62;67.12;99005.81;5073701;28;20059;-63
2023/12/28 09:13:42;;;;;;;2.63;1.50;;;;;;;1.73;67.41;99033.91;5072279;28;20040;-63
2023/12/28 09:16:13;;;;;;;3.72;2.22;;;;;;;1.70;67.74;99036.50;5078071;28;20461;-63
2023/12/28 09:18:39;;;;;;;3.55;1.70;;;;;;;1.78;68.19;99031.31;5088582;28;20091;-65
2023/12/28 09:21:07;;;;;;;3.20;2.17;;;;;;;1.61;68.29;99031.47;5069972;28;20036;-63
2023/12/28 09:23:34;;;;;;;4.15;1.80;;;;;;;1.62;68.37;99033.19;5076578;28;20098;-63
2023/12/28 09:26:01;;;;;;;4.10;1.95;;;;;;;1.77;68.53;99032.19;5073283;28;20044;-65
2023/12/28 09:28:26;;;;;;;3.45;1.92;;;;;;;2.01;68.32;99032.78;5085448;28;20474;-63
2023/12/28 09:30:52;;;;;;;2.92;1.90;;;;;;;2.01;68.01;99002.00;5077181;28;20059;-62
2023/12/28 09:33:19;;;;;;;4.47;2.20;;;;;;;2.29;67.63;99041.03;5074769;28;20064;-61
2023/12/28 09:35:45;;;;;;;4.72;2.15;;;;;;;2.36;67.50;99049.47;5085061;28;20044;-63
2023/12/28 09:38:10;;;;;;;5.43;2.80;;;;;;;2.31;66.95;99036.72;5078314;28;20043;-62
2023/12/28 09:40:36;;;;;;;3.08;1.85;;;;;;;2.31;66.00;99034.13;5073078;28;20071;-69
2023/12/28 09:43:25;;;;;;;4.18;2.10;;;;;;;2.50;65.41;99039.91;5070873;28;20048;-62
2023/12/28 09:45:51;;;;;;;4.93;2.10;;;;;;;2.50;64.70;99030.50;5081661;28;20051;-60
2023/12/28 09:48:18;;;;;;;4.10;2.15;;;;;;;2.75;63.98;99035.31;5074768;28;20040;-60
2023/12/28 09:50:45;;;;;;;4.82;1.98;;;;;;;2.94;63.41;99039.31;5074350;28;20063;-62
2023/12/28 09:53:12;;;;;;;3.15;1.88;;;;;;;3.25;62.38;99045.69;5072633;28;20036;-60
2023/12/28 09:55:39;;;;;;;5.93;2.45;;;;;;;3.13;62.21;99030.50;5084652;28;20120;-62
2023/12/28 09:58:05;;;;;;;3.72;2.70;;;;;;;3.16;62.39;99043.28;5073776;28;20035;-63
2023/12/28 10:00:32;;;;;;;4.30;2.35;;;;;;;3.09;62.42;99048.53;5073188;28;20045;-63
2023/12/28 10:02:58;;;;;;;3.70;2.20;;;;;;;3.06;62.40;99051.97;5073178;28;20056;-56
2023/12/28 10:05:24;;;;;;;3.70;1.90;;;;;;;2.98;61.89;99048.69;5079433;28;20423;-61
2023/12/28 10:07:50;;;;;;;3.05;1.98;;;;;;;2.60;61.49;99018.41;5079390;28;20036;-62
2023/12/28 10:10:16;;;;;;;3.88;2.22;;;;;;;2.54;61.33;99050.13;5081217;28;20046;-59
2023/12/28 10:12:43;;;;;;;3.75;1.90;;;;;;;2.42;61.01;99047.69;5073165;28;20543;-61
2023/12/28 10:15:09;;;;;;;3.45;1.80;;;;;;;2.27;60.89;99047.88;5072485;28;20039;-62
2023/12/28 10:17:35;;;;;;;3.83;1.75;;;;;;;2.12;60.70;99046.34;5079309;28;20039;-62
2023/12/28 10:20:07;;;;;;;2.88;1.60;;;;;;;2.04;60.79;99053.25;5070602;28;20054;-61
2023/12/28 10:22:33;;;;;;;3.72;1.92;;;;;;;2.08;60.83;99052.38;5084767;28;20112;-61
2023/12/28 10:24:59;;;;;;;3.08;1.80;;;;;;;2.09;60.60;99046.34;5055786;28;20504;-61
2023/12/28 10:27:28;;;;;;;3.45;1.75;;;;;;;2.17;60.92;99042.88;5074373;28;20558;-61
2023/12/28 10:29:55;;;;;;;3.13;1.73;;;;;;;2.13;60.54;99048.03;5072100;28;20043;-59
2023/12/28 10:32:23;;;;;;;2.40;1.65;;;;;;;2.18;60.88;99042.84;5079680;28;20081;-59
2023/12/28 10:34:49;;;;;;;3.25;1.80;;;;;;;2.14;60.44;99046.31;5073013;28;20160;-59
2023/12/28 10:37:17;;;;;;;5.50;2.33;;;;;;;2.20;60.81;99048.78;5084119;28;20203;-66
2023/12/28 10:39:47;;;;;;;4.63;2.20;;;;;;;2.21;60.76;99047.94;5070194;28;20067;-62
2023/12/28 10:42:14;;;;;;;4.13;2.03;;;;;;;1.97;60.66;99008.03;5071370;28;20032;-62
2023/12/28 10:44:43;;;;;;;4.03;1.90;;;;;;;2.03;60.57;99049.00;5055605;28;20046;-61
2023/12/28 10:47:17;;;;;;;2.47;1.73;;;;;;;2.08;60.90;99044.69;5072805;28;20041;-61
2023/12/28 10:49:44;;;;;;;3.13;1.58;;;;;;;1.87;60.62;99008.16;5072434;28;20051;-62
2023/12/28 10:52:13;;;;;;;4.72;1.85;;;;;;;1.88;60.45;99013.28;5074165;28;20046;-61
2023/12/28 10:54:57;;;;;;;2.95;1.60;;;;;;;2.22;60.42;99044.50;5066020;28;20114;-62
2023/12/28 10:57:27;;;;;;;3.42;1.92;;;;;;;2.27;59.97;99047.88;5075341;28;20055;-62
2023/12/28 10:59:53;;;;;;;3.47;1.80;;;;;;;2.28;60.08;99046.16;5088528;28;20072;-63
2023/12/28 11:02:21;;;;;;;3.95;2.30;;;;;;;2.11;59.92;99039.50;5076180;28;20097;-59
2023/12/28 11:04:52;;;;;;;3.08;2.05;;;;;;;2.17;60.05;99043.72;5067839;28;20032;-57
2023/12/28 11:07:19;;;;;;;2.85;1.85;;;;;;;1.96;59.97;99041.38;5081736;28;20071;-61
2023/12/28 11:09:45;;;;;;;6.80;2.17;;;;;;;1.64;59.66;98991.28;5059102;28;20123;-59
2023/12/28 11:12:11;;;;;;;3.55;1.92;;;;;;;2.05;60.13;99049.81;5072655;28;20051;-65
2023/12/28 11:14:42;;;;;;;4.10;2.22;;;;;;;1.97;59.96;99038.81;5076204;28;20129;-57
2023/12/28 11:17:11;;;;;;;6.07;2.55;;;;;;;1.75;60.11;99008.28;5066283;28;20492;-58
2023/12/28 11:19:37;;;;;;;4.15;1.65;;;;;;;1.95;60.06;99050.78;5080775;28;20419;-61
2023/12/28 11:22:04;;;;;;;2.92;1.83;;;;;;;1.91;60.06;99040.56;5074568;28;20048;-65
2023/12/28 11:24:30;;;;;;;2.08;1.38;;;;;;;1.75;60.00;99055.25;5049292;28;20085;-62
2023/12/28 11:26:57;;;;;;;4.07;1.65;;;;;;;1.43;60.08;99021.38;5074907;28;20078;-61
2023/12/28 11:29:24;;;;;;;2.53;1.40;;;;;;;1.72;59.90;99054.44;5079932;28;20538;-62
2023/12/28 11:31:54;;;;;;;3.55;1.80;;;;;;;1.68;59.96;99044.19;5084331;28;20040;-63
2023/12/28 11:34:31;;;;;;;2.17;1.20;;;;;;;1.63;59.96;99057.91;5081475;28;20119;-62
2023/12/28 11:37:00;;;;;;;1.77;1.23;;;;;;;1.58;60.02;99057.94;5084632;28;20101;-62
2023/12/28 11:39:33;;;;;;;3.15;2.08;;;;;;;1.56;59.79;99052.00;5088612;28;20047;-63